Map

Track Data

SID SEASON NUMBER BASIN SUBBASIN NAME ISO_TIME NATURE LAT LON WMO_WIND WMO_PRES WMO_AGENCY TRACK_TYPE DIST2LAND LANDFALL IFLAG USA_AGENCY USA_ATCF_ID USA_LAT USA_LON USA_RECORD USA_STATUS USA_WIND USA_PRES USA_SSHS USA_R34_NE USA_R34_SE USA_R34_SW USA_R34_NW USA_R50_NE USA_R50_SE USA_R50_SW USA_R50_NW USA_R64_NE USA_R64_SE USA_R64_SW USA_R64_NW USA_POCI USA_ROCI USA_RMW USA_EYE TOKYO_LAT TOKYO_LON TOKYO_GRADE TOKYO_WIND TOKYO_PRES TOKYO_R50_DIR TOKYO_R50_LONG TOKYO_R50_SHORT TOKYO_R30_DIR TOKYO_R30_LONG TOKYO_R30_SHORT TOKYO_LAND CMA_LAT CMA_LON CMA_CAT CMA_WIND CMA_PRES HKO_LAT HKO_LON HKO_CAT HKO_WIND HKO_PRES NEWDELHI_LAT NEWDELHI_LON NEWDELHI_GRADE NEWDELHI_WIND NEWDELHI_PRES NEWDELHI_CI NEWDELHI_DP NEWDELHI_POCI REUNION_LAT REUNION_LON REUNION_TYPE REUNION_WIND REUNION_PRES REUNION_TNUM REUNION_CI REUNION_RMW REUNION_R34_NE REUNION_R34_SE REUNION_R34_SW REUNION_R34_NW REUNION_R50_NE REUNION_R50_SE REUNION_R50_SW REUNION_R50_NW REUNION_R64_NE REUNION_R64_SE REUNION_R64_SW REUNION_R64_NW BOM_LAT BOM_LON BOM_TYPE BOM_WIND BOM_PRES BOM_TNUM BOM_CI BOM_RMW BOM_R34_NE BOM_R34_SE BOM_R34_SW BOM_R34_NW BOM_R50_NE BOM_R50_SE BOM_R50_SW BOM_R50_NW BOM_R64_NE BOM_R64_SE BOM_R64_SW BOM_R64_NW BOM_ROCI BOM_POCI BOM_EYE BOM_POS_METHOD BOM_PRES_METHOD NADI_LAT NADI_LON NADI_CAT NADI_WIND NADI_PRES WELLINGTON_LAT WELLINGTON_LON WELLINGTON_WIND WELLINGTON_PRES DS824_LAT DS824_LON DS824_STAGE DS824_WIND DS824_PRES TD9636_LAT TD9636_LON TD9636_STAGE TD9636_WIND TD9636_PRES TD9635_LAT TD9635_LON TD9635_WIND TD9635_PRES TD9635_ROCI NEUMANN_LAT NEUMANN_LON NEUMANN_CLASS NEUMANN_WIND NEUMANN_PRES MLC_LAT MLC_LON MLC_CLASS MLC_WIND MLC_PRES USA_GUST BOM_GUST BOM_GUST_PER REUNION_GUST REUNION_GUST_PER USA_SEAHGT USA_SEARAD_NE USA_SEARAD_SE USA_SEARAD_SW USA_SEARAD_NW STORM_SPEED STORM_DIR
1964067S10137 1964 18 SP EA CARMEN 1964-03-06 23:00:00 NR -10.3000 137.000 main 198 176 __________O___ -1 -10.3000 137.000 7 27 185
1964067S10137 1964 18 SP EA CARMEN 1964-03-06 23:30:00 NR -10.5229 136.986 1002 bom main 176 166 ______O___P___ -1 -11.0000 137.100 1002 -10.2843 136.930 7 15 192
1964067S10137 1964 18 SP EA CARMEN 1964-03-07 00:00:00 TS -10.5451 136.945 main 173 162 O_____P__OP___ jtwc_sh SH251964 -10.3000 136.900 -1 -10.9776 137.040 -10.3000 136.900 TC -10.2686 136.859 7 8 281
1964067S10137 1964 18 SP EA CARMEN 1964-03-07 03:00:00 TS -10.4402 136.542 main 179 179 P_____P__PP___ SH251964 -10.2002 136.430 -1 -10.8413 136.681 -10.2002 136.430 TC -10.1732 136.441 7 8 284
1964067S10137 1964 18 SP EA CARMEN 1964-03-07 06:00:00 TS -10.3613 136.188 main 182 182 O_____P__OP_O_ jtwc_sh SH251964 -10.1000 136.000 -1 -10.6982 136.327 -10.1000 136.000 TC -10.0749 136.033 7 -10.7000 136.700 TC 30 1000 7 286
1964067S10137 1964 18 SP EA CARMEN 1964-03-07 09:00:00 TS -10.2432 135.844 main 212 212 P_____P__PP_P_ SH251964 -9.99991 135.635 -1 -10.5428 135.981 -9.99991 135.635 TC -9.97202 135.645 7 -10.5401 136.360 TC 30 999 7 289
1964067S10137 1964 18 SP EA CARMEN 1964-03-07 11:00:00 TS -10.1704 135.634 main 212 212 P_____P__PO_P_ SH251964 -9.93329 135.411 -1 -10.4297 135.755 -9.93329 135.411 TC -9.90000 135.400 7 -10.4432 136.123 TC 30 999 6 289
1964067S10137 1964 18 SP EA CARMEN 1964-03-07 11:30:00 TS -10.1603 135.596 bom main 212 212 P_____O__PP_P_ SH251964 -9.91665 135.356 -1 -10.4000 135.700 -9.91665 135.356 TC -9.88152 135.341 7 -10.4211 136.062 TC 30 999 6 288
1964067S10137 1964 18 SP EA CARMEN 1964-03-07 12:00:00 TS -10.1388 135.538 main 224 224 O_____P__OP_O_ jtwc_sh SH251964 -9.90000 135.300 -1 -10.3697 135.645 -9.90000 135.300 TC -9.86296 135.283 7 -10.4000 136.000 TC 30 999 7 290
1964067S10137 1964 18 SP EA CARMEN 1964-03-07 15:00:00 TS -10.0091 135.181 main 239 236 P_____P__PP_P_ SH251964 -9.78496 134.950 -1 -10.1872 135.314 -9.78496 134.950 TC -9.75736 134.944 7 -10.2925 135.608 TC 32 998 8 288
1964067S10137 1964 18 SI WA CARMEN 1964-03-07 18:00:00 TS -9.90566 134.815 main 239 230 O_____P__OP_O_ jtwc_sh SH251964 -9.70000 134.600 -1 -10.0370 134.954 -9.70000 134.600 TC -9.68198 134.609 7 -10.2000 135.200 TC 35 998 7 284
1964067S10137 1964 18 SI WA CARMEN 1964-03-07 21:00:00 TS -9.83542 134.449 main 233 228 P_____P__PP_P_ SH251964 -9.65489 134.272 -1 -9.96567 134.529 -9.65489 134.272 TC -9.66501 134.256 7 -10.0472 134.845 TC 35 997 8 276
1964067S10137 1964 18 SI WA CARMEN 1964-03-07 23:00:00 TS -9.83690 134.178 main 228 222 P_____P__PO_P_ SH251964 -9.67185 134.034 -1 -9.98489 134.193 -9.67185 134.034 TC -9.70000 134.000 7 -9.99321 134.567 TC 35 997 8 268
1964067S10137 1964 18 SI WA CARMEN 1964-03-07 23:30:00 TS -9.84597 134.103 996 bom main 222 213 P_____O__PP_P_ SH251964 -9.68409 133.968 -1 -10.0000 134.100 996 -9.68409 133.968 TC -9.71589 133.926 7 -9.99311 134.487 TC 35 997 9 262
1964067S10137 1964 18 SI WA CARMEN 1964-03-08 00:00:00 TS -9.85952 134.024 main 206 169 O_____P__OP_O_ jtwc_sh SH251964 -9.70000 133.900 -1 -10.0226 133.994 996 -9.70000 133.900 TC -9.73452 133.850 7 -10.0000 134.400 TC 35 997 11 255
1964067S10137 1964 18 SI WA CARMEN 1964-03-08 03:00:00 TS -10.0140 133.473 main 169 129 P_____P__PP_P_ SH251964 -9.85505 133.415 -1 -10.2370 133.291 996 -9.85505 133.415 TC -9.89715 133.369 7 -10.1978 133.715 TC 35 996 12 250
1964067S10137 1964 18 SI WA CARMEN 1964-03-08 06:00:00 TS -10.2535 132.895 main 120 81 O_____P__OP_O_ jtwc_sh SH251964 -10.1000 132.900 -1 -10.5360 132.554 996 -10.1000 132.900 TC -10.1287 132.869 7 -10.5000 133.000 TC 35 996 12 245
1964067S10137 1964 18 SI WA CARMEN 1964-03-08 08:30:00 TS -10.4724 132.456 996 bom main 81 79 P_____O__PP_P_ SH251964 -10.3340 132.504 -1 -10.8000 132.000 996 -10.3340 132.504 TC -10.3563 132.467 7 -10.7082 132.532 TC 35 996 12 243
1964067S10137 1964 18 SI WA CARMEN 1964-03-08 09:00:00 TS -10.5160 132.375 main 79 56 P_____P__PP_P_ SH251964 -10.3850 132.428 -1 -10.8365 131.912 -10.3850 132.428 TC -10.4042 132.390 7 -10.7498 132.447 TC 35 996 11 240
1964067S10137 1964 18 SI WA CARMEN 1964-03-08 11:00:00 TS -10.6947 132.071 main 56 44 P_____P__PO_P_ SH251964 -10.5947 132.136 -1 -10.9736 131.603 -10.5947 132.136 TC -10.6000 132.100 7 -10.9166 132.139 TC 35 996 10 238
1964067S10137 1964 18 SI WA CARMEN 1964-03-08 12:00:00 TS -10.7853 131.932 main 46 39 O_____P__OP_O_ jtwc_sh SH251964 -10.7000 132.000 -1 -11.0386 131.470 -10.7000 132.000 TC -10.6984 131.972 7 -11.0000 132.000 TC 35 996 9 234
1964067S10137 1964 18 SI WA CARMEN 1964-03-08 15:00:00 TS -11.0605 131.550 main 39 0 P_____P__PP_P_ SH251964 -10.9999 131.620 -1 -11.2330 131.143 -10.9999 131.620 TC -11.0140 131.623 7 -11.2499 131.620 TC 40 996 9 231
1964067S10137 1964 18 SI WA CARMEN 1964-03-08 18:00:00 TS -11.3483 131.225 main 0 0 O_____P__OP_O_ jtwc_sh SH251964 -11.3000 131.300 -1 -11.4492 130.893 -11.3000 131.300 TC -11.3356 131.322 7 -11.5000 131.300 TC 45 996 8 225
1964067S10137 1964 18 SI WA CARMEN 1964-03-08 21:00:00 TS -11.6535 130.936 main 0 0 P_____P__PP_P_ SH251964 -11.6300 131.028 -1 -11.7167 130.679 -11.6300 131.028 TC -11.6320 131.059 7 -11.7275 130.985 TC 40 996 8 222
1964067S10137 1964 18 SI WA CARMEN 1964-03-08 23:00:00 TS -11.8569 130.763 main 11 11 P_____P__PO_P_ SH251964 -11.8228 130.872 -1 -11.9381 130.537 -11.8228 130.872 TC -11.8000 130.900 7 -11.8995 130.792 TC 36 996 8 220
1964067S10137 1964 18 SI WA CARMEN 1964-03-08 23:30:00 TS -11.9056 130.721 996 bom main 15 15 P_____O__PP_P_ SH251964 -11.8634 130.836 -1 -12.0000 130.500 996 -11.8634 130.836 TC -11.8299 130.856 7 -11.9483 130.745 TC 35 996 8 219
1964067S10137 1964 18 SI WA CARMEN 1964-03-09 00:00:00 TS -11.9548 130.678 main 24 22 O_____P__OP_O_ jtwc_sh SH251964 -11.9000 130.800 -1 -12.0711 130.454 996 -11.9000 130.800 TC -11.8577 130.814 7 -12.0000 130.700 TC 35 996 8 221
1964067S10137 1964 18 SI WA CARMEN 1964-03-09 03:00:00 TS -12.2369 130.430 main 40 31 P_____P__PP_P_ SH251964 -12.0225 130.585 -1 -12.5311 130.190 996 -12.0225 130.585 TC -11.9893 130.574 7 -12.4075 130.420 TC 37 996 7 220
1964067S10137 1964 18 SI WA CARMEN 1964-03-09 05:30:00 TS -12.4523 130.254 996 bom main 24 24 P_____O__PP_P_ SH251964 -12.0849 130.429 -1 -12.9000 130.000 996 -12.0849 130.429 TC -12.0737 130.399 7 -12.7431 130.230 TC 39 996 7 218
1964067S10137 1964 18 SI WA CARMEN 1964-03-09 06:00:00 TS -12.4914 130.222 main 31 24 O_____P__OP_O_ jtwc_sh SH251964 -12.1000 130.400 -1 -12.9581 129.966 -12.1000 130.400 TC -12.0901 130.367 7 -12.8000 130.200 TC 40 996 5 217
1964067S10137 1964 18 SI WA CARMEN 1964-03-09 09:00:00 TS -12.7029 130.060 main 31 24 P_____P__PP_P_ SH251964 -12.2200 130.242 -1 -13.2367 129.791 -12.2200 130.242 TC -12.2007 130.194 7 -13.0375 130.070 TC 37 996 5 215
1964067S10137 1964 18 SI WA CARMEN 1964-03-09 11:00:00 TS -12.8362 129.973 main 24 15 P_____P__PO_P_ SH251964 -12.3302 130.147 -1 -13.3681 129.702 -12.3302 130.147 TC -12.3000 130.100 7 -13.1495 130.020 TC 35 996 5 212
1964067S10137 1964 18 SI WA CARMEN 1964-03-09 12:00:00 TS -12.9075 129.932 main 24 21 O_____P__OP_O_ jtwc_sh SH251964 -12.4000 130.100 -1 -13.4214 129.665 -12.4000 130.100 TC -12.3752 130.053 7 -13.2000 130.000 TC 35 996 5 206
1964067S10137 1964 18 SI WA CARMEN 1964-03-09 15:00:00 TS -13.1410 129.816 main 32 15 P_____P__PP_P_ SH251964 -12.6850 129.928 -1 -13.5478 129.581 -12.6850 129.928 TC -12.6355 129.939 7 -13.3500 129.950 TC 35 996 5 202
1964067S10137 1964 18 SI WA CARMEN 1964-03-09 18:00:00 TS -13.3778 129.732 main 15 10 O_____P__OP_O_ jtwc_sh SH251964 -13.0000 129.800 -1 -13.6514 129.531 -13.0000 129.800 TC -12.9258 129.860 7 -13.5000 129.900 TC 35 996 5 196
1964067S10137 1964 18 SI WA CARMEN 1964-03-09 21:00:00 TS -13.6002 129.683 main 10 10 P_____P__PP_P_ SH251964 -13.2650 129.770 -1 -13.7677 129.506 -13.2650 129.770 TC -13.2180 129.814 7 -13.6925 129.778 TC 35 996 4 188
1964067S10137 1964 18 SI WA CARMEN 1964-03-09 23:00:00 TS -13.7430 129.673 main 10 10 P_____P__PO_P_ SH251964 -13.4250 129.786 -1 -13.8699 129.500 -13.4250 129.786 TC -13.4000 129.800 7 -13.8307 129.713 TC 35 996 4 0
1964067S10137 1964 18 SI WA CARMEN 1964-03-09 23:30:00 TS -13.7773 129.673 996 bom main 10 10 P_____O__PP_P_ SH251964 -13.4629 129.793 -1 -13.9000 129.500 996 4 -13.4629 129.793 TC -13.4393 129.797 7 -13.8654 129.705 TC 35 996 4 178
1964067S10137 1964 18 SI WA CARMEN 1964-03-10 00:00:00 TS -13.8115 129.674 main 10 0 O_____P__OP_O_ jtwc_sh SH251964 -13.5000 129.800 -1 -13.9326 129.497 996 -13.5000 129.800 TC -13.4779 129.795 7 -13.9000 129.700 TC 35 996 4 167
1964067S10137 1964 18 SI WA CARMEN 1964-03-10 01:00:00 TS -13.8792 129.681 996 bom main 0 0 P_____O__PP_P_ SH251964 -13.5724 129.814 -1 -14.0000 129.500 996 -13.5724 129.814 TC -13.5531 129.794 7 -13.9719 129.713 TC 35 996 4 171
1964067S10137 1964 18 SI WA CARMEN 1964-03-10 03:00:00 TS -14.0106 129.720 main 0 0 P_____P__PP_P_ SH251964 -13.7075 129.850 -1 -14.1490 129.577 996 -13.7075 129.850 TC -13.6958 129.802 7 -14.1150 129.777 TC 35 996 4 160
1964067S10137 1964 18 SI WA CARMEN 1964-03-10 05:00:00 TS -14.1342 129.773 997 bom main 0 0 P_____O__PP_P_ SH251964 -13.8360 129.886 -1 -14.3000 129.700 997 -13.8360 129.886 TC -13.8300 129.820 7 -14.2448 129.862 TC 35 996 4 157
1964067S10137 1964 18 SI WA CARMEN 1964-03-10 06:00:00 TS -14.1921 129.798 main 0 0 O_____P__OP_O_ jtwc_sh SH251964 -13.9000 129.900 -1 -14.3692 129.757 -13.9000 129.900 TC -13.8945 129.832 7 -14.3000 129.900 TC 35 997 3 164
1964067S10137 1964 18 SI WA CARMEN 1964-03-10 09:00:00 TS -14.3522 129.845 main 0 0 P_____P__PP_P_ SH251964 -14.1075 129.900 -1 -14.5467 129.889 -14.1075 129.900 TC -14.0802 129.873 7 -14.4075 129.958 TC 35 997 3 165
1964067S10137 1964 18 SI WA CARMEN 1964-03-10 11:00:00 TS -14.4481 129.871 main 0 0 P_____P__PO_P_ SH251964 -14.2390 129.897 -1 -14.6428 129.948 -14.2390 129.897 TC -14.2000 129.900 7 -14.4662 129.986 TC 35 997 3 167
1964067S10137 1964 18 SI WA CARMEN 1964-03-10 12:00:00 TS -14.5112 129.883 main 0 0 O_____P__OP_O_ jtwc_sh SH251964 -14.3000 129.900 -1 -14.6851 129.970 -14.3000 129.900 TC -14.2593 129.912 7 -14.5000 130.000 TC 35 997 3 166
1964067S10137 1964 18 SI WA CARMEN 1964-03-10 15:00:00 TS -14.6583 129.930 main 0 0 P_____P__PP_P_ SH251964 -14.4600 129.937 -1 -14.7927 130.011 -14.4600 129.937 TC -14.4358 129.943 7 -14.6500 130.050 TC 35 997 3 164
1964067S10137 1964 18 SI WA CARMEN 1964-03-10 18:00:00 TS -14.8026 129.976 main 0 0 O_____P__OP_O_ jtwc_sh SH251964 -14.6000 130.000 -1 -14.8773 130.022 -14.6000 130.000 TC -14.6106 129.968 7 -14.8000 130.100 TC 35 998 3 164
1964067S10137 1964 18 SI WA CARMEN 1964-03-10 21:00:00 TS -14.9247 130.016 main 0 0 ______P___P_P_ SH251964 -1 -14.9472 130.014 TC -14.7844 129.988 7 -14.9125 130.150 TC 35 998 2 159
1964067S10137 1964 18 SI WA CARMEN 1964-03-10 23:00:00 TS -14.9762 130.050 main 0 0 ______P___O_P_ SH251964 -1 -14.9896 130.003 TC -14.9000 130.000 7 -14.9721 130.183 TC 35 998 2 141
1964067S10137 1964 18 SI WA CARMEN 1964-03-10 23:30:00 TS -14.9938 130.070 999 bom main 0 0 ______O_____P_ SH251964 -1 -15.0000 130.000 999 TC 7 -14.9861 130.192 TC 35 998 3 127
1964067S10137 1964 18 SI WA CARMEN 1964-03-11 00:00:00 TS -15.0000 130.100 main 0 ____________O_ -1 7 -15.0000 130.200 TC 35 998 4 99

Digital Typhoon Data and Search

About IBTrACS Database

This database is a web-friendly format of International Best Track Archive for Climate Stewardship (IBTrACS), a global best track data archive curated by NOAA dating back to 1842.

Updated: 2021-10-21